createdAt,value
2023-04-05T00:00:13.582Z,13.05
2023-04-05T00:02:42.661Z,12.43
2023-04-05T00:05:14.845Z,16.60
2023-04-05T00:07:50.459Z,13.90
2023-04-05T00:10:19.103Z,14.48
2023-04-05T00:12:46.776Z,13.18
2023-04-05T00:15:14.164Z,10.73
2023-04-05T00:17:41.697Z,12.48
2023-04-05T00:20:13.568Z,13.77
2023-04-05T00:22:45.000Z,13.90
2023-04-05T00:25:13.405Z,13.65
2023-04-05T00:27:44.922Z,16.95
2023-04-05T00:30:13.137Z,17.17
2023-04-05T00:32:40.525Z,20.38
2023-04-05T00:35:08.350Z,15.13
2023-04-05T00:37:36.202Z,13.25
2023-04-05T00:40:05.566Z,18.80
2023-04-05T00:42:32.728Z,13.60
2023-04-05T00:45:03.384Z,15.48
2023-04-05T00:47:30.821Z,19.48
2023-04-05T00:50:00.136Z,21.67
2023-04-05T00:52:31.412Z,14.40
2023-04-05T00:55:03.400Z,17.70
2023-04-05T00:57:33.535Z,16.73
2023-04-05T01:00:01.546Z,14.65
2023-04-05T01:02:42.022Z,18.05
2023-04-05T01:05:24.553Z,16.52
2023-04-05T01:08:00.144Z,20.42
2023-04-05T01:10:35.575Z,14.95
2023-04-05T01:13:10.446Z,19.40
2023-04-05T01:15:38.807Z,13.07
2023-04-05T01:18:08.969Z,16.48
2023-04-05T01:20:41.326Z,14.25
2023-04-05T01:23:39.622Z,18.67
2023-04-05T01:26:43.566Z,15.32
2023-04-05T01:29:36.141Z,13.13
2023-04-05T01:32:37.798Z,17.63
2023-04-05T01:35:17.301Z,15.45
2023-04-05T01:37:50.105Z,20.00
2023-04-05T01:40:19.176Z,14.30
2023-04-05T01:42:47.420Z,16.65
2023-04-05T01:45:16.059Z,15.55
2023-04-05T01:47:43.730Z,12.52
2023-04-05T01:50:12.270Z,17.35
2023-04-05T01:52:40.540Z,18.83
2023-04-05T01:55:08.863Z,17.17
2023-04-05T01:57:48.340Z,16.02
2023-04-05T02:00:17.588Z,17.38
2023-04-05T02:02:46.578Z,15.85
2023-04-05T02:05:14.207Z,14.98
2023-04-05T02:07:42.807Z,15.32
2023-04-05T02:10:11.100Z,20.80
2023-04-05T02:12:39.784Z,14.45
2023-04-05T02:15:08.007Z,18.35
2023-04-05T02:17:40.301Z,14.25
2023-04-05T02:20:09.067Z,16.98
2023-04-05T02:22:37.186Z,19.83
2023-04-05T02:25:10.073Z,22.60
2023-04-05T02:27:38.823Z,19.58
2023-04-05T02:30:06.873Z,15.93
2023-04-05T02:32:36.320Z,13.63
2023-04-05T02:35:05.521Z,17.55
2023-04-05T02:37:35.345Z,15.10
2023-04-05T02:40:06.081Z,17.50
2023-04-05T02:42:35.578Z,14.52
2023-04-05T02:45:02.930Z,19.98
2023-04-05T02:47:32.025Z,24.65
2023-04-05T02:50:02.601Z,14.82
2023-04-05T02:52:38.294Z,16.58
2023-04-05T02:55:07.501Z,17.48
2023-04-05T02:57:36.953Z,21.33
2023-04-05T03:00:19.562Z,20.42
2023-04-05T03:02:46.702Z,18.48
2023-04-05T03:05:20.954Z,21.95
2023-04-05T03:07:52.394Z,17.90
2023-04-05T03:10:26.454Z,20.20
2023-04-05T03:13:01.594Z,19.00
2023-04-05T03:15:34.169Z,17.65
2023-04-05T03:18:07.973Z,19.13
2023-04-05T03:20:41.780Z,17.88
2023-04-05T03:23:17.381Z,16.63
2023-04-05T03:25:46.614Z,25.40
2023-04-05T03:28:16.223Z,19.52
2023-04-05T03:30:47.246Z,22.15
2023-04-05T03:35:52.597Z,18.15
2023-04-05T03:38:21.644Z,15.48
2023-04-05T03:41:07.277Z,17.88
2023-04-05T03:43:36.181Z,17.88
2023-04-05T03:46:06.100Z,18.30
2023-04-05T03:48:36.495Z,21.15
2023-04-05T03:51:09.908Z,16.23
2023-04-05T03:53:40.112Z,16.23
2023-04-05T03:56:24.656Z,19.20
2023-04-05T03:58:53.426Z,20.55
2023-04-05T04:01:27.472Z,23.45
2023-04-05T04:04:13.815Z,23.08
2023-04-05T04:06:48.674Z,18.75
2023-04-05T04:09:19.564Z,17.75
2023-04-05T04:11:48.400Z,20.00
2023-04-05T04:14:23.800Z,22.08
2023-04-05T04:17:37.627Z,19.73
2023-04-05T04:20:29.294Z,22.70
2023-04-05T04:23:27.411Z,23.08
2023-04-05T04:26:07.241Z,19.73
2023-04-05T04:29:06.998Z,19.60
2023-04-05T04:31:53.479Z,19.25
2023-04-05T04:34:54.684Z,17.38
2023-04-05T04:37:47.104Z,22.27
2023-04-05T04:40:51.038Z,19.80
2023-04-05T04:43:27.461Z,21.52
2023-04-05T04:46:11.064Z,21.48
2023-04-05T04:48:55.284Z,20.63
2023-04-05T04:51:35.084Z,20.02
2023-04-05T04:54:02.625Z,29.23
2023-04-05T04:56:32.859Z,29.27
2023-04-05T04:59:01.833Z,22.40
2023-04-05T05:01:29.127Z,21.63
2023-04-05T05:03:56.317Z,22.67
2023-04-05T05:06:30.432Z,25.52
2023-04-05T05:08:57.645Z,19.98
2023-04-05T05:11:27.420Z,25.27
2023-04-05T05:13:58.094Z,23.10
2023-04-05T05:16:32.322Z,19.38
2023-04-05T05:19:00.139Z,28.02
2023-04-05T05:21:33.848Z,25.00
2023-04-05T05:24:02.609Z,26.77
2023-04-05T05:26:29.782Z,26.10
2023-04-05T05:29:02.252Z,23.80
2023-04-05T05:31:33.265Z,27.35
2023-04-05T05:34:02.005Z,26.63
2023-04-05T05:36:29.191Z,30.95
2023-04-05T05:38:57.287Z,29.80
2023-04-05T05:41:26.769Z,30.92
2023-04-05T05:43:54.518Z,37.65
2023-04-05T05:46:24.957Z,39.28
2023-04-05T05:48:52.181Z,37.90
2023-04-05T05:51:23.931Z,45.40
2023-04-05T05:53:52.182Z,48.40
2023-04-05T05:56:27.126Z,49.20
2023-04-05T05:58:56.182Z,46.67
2023-04-05T06:04:12.491Z,56.22
2023-04-05T06:06:41.670Z,66.45
2023-04-05T06:09:08.740Z,69.50
2023-04-05T06:11:39.044Z,70.60
2023-04-05T06:14:13.630Z,64.35
2023-04-05T06:16:40.787Z,58.25
2023-04-05T06:19:08.720Z,42.30
2023-04-05T06:21:41.549Z,42.50
2023-04-05T06:24:12.214Z,40.03
2023-04-05T06:26:39.640Z,36.30
2023-04-05T06:29:07.625Z,28.88
2023-04-05T06:31:40.966Z,26.58
2023-04-05T06:34:08.586Z,23.92
2023-04-05T06:36:36.261Z,23.95
2023-04-05T06:39:04.443Z,23.40
2023-04-05T06:41:32.198Z,24.23
2023-04-05T06:44:01.134Z,22.00
2023-04-05T06:46:29.308Z,25.27
2023-04-05T06:49:01.568Z,36.28
2023-04-05T06:51:34.989Z,24.67
2023-04-05T06:54:02.203Z,26.55
2023-04-05T06:56:30.725Z,24.02
2023-04-05T06:58:59.762Z,22.02
2023-04-05T07:01:27.683Z,25.73
2023-04-05T07:03:55.747Z,22.98
2023-04-05T07:06:24.348Z,21.50
2023-04-05T07:08:51.631Z,26.80
2023-04-05T07:11:18.892Z,41.33
2023-04-05T07:13:47.354Z,24.40
2023-04-05T07:16:15.131Z,20.00
2023-04-05T07:18:43.590Z,30.00
2023-04-05T07:21:23.435Z,26.67
2023-04-05T07:23:52.319Z,24.90
2023-04-05T07:26:19.681Z,26.13
2023-04-05T07:28:46.845Z,24.60
2023-04-05T07:31:15.409Z,31.35
2023-04-05T07:33:42.767Z,25.77
2023-04-05T07:36:10.134Z,26.77
2023-04-05T07:38:37.605Z,28.30
2023-04-05T07:41:05.975Z,26.60
2023-04-05T07:43:38.639Z,25.48
2023-04-05T07:46:06.530Z,19.23
2023-04-05T07:48:33.740Z,19.45
2023-04-05T07:51:16.372Z,25.45
2023-04-05T07:53:43.719Z,23.70
2023-04-05T07:56:14.188Z,20.58
2023-04-05T07:58:50.175Z,20.45
2023-04-05T08:01:17.341Z,27.38
2023-04-05T08:03:44.653Z,20.88
2023-04-05T08:06:19.236Z,20.15
2023-04-05T08:08:47.498Z,21.15
2023-04-05T08:11:17.320Z,23.17
2023-04-05T08:13:47.345Z,18.05
2023-04-05T08:16:15.863Z,22.58
2023-04-05T08:18:45.042Z,21.10
2023-04-05T08:21:13.777Z,19.35
2023-04-05T08:23:41.550Z,17.70
2023-04-05T08:26:10.969Z,20.70
2023-04-05T08:28:40.445Z,18.60
2023-04-05T08:31:12.357Z,20.13
2023-04-05T08:33:52.797Z,18.20
2023-04-05T08:36:31.425Z,15.35
2023-04-05T08:39:03.202Z,17.77
2023-04-05T08:41:41.194Z,22.85
2023-04-05T08:44:16.520Z,16.05
2023-04-05T08:46:44.460Z,17.75
2023-04-05T08:49:18.599Z,17.60
2023-04-05T08:51:49.238Z,15.10
2023-04-05T08:54:17.531Z,13.10
2023-04-05T08:56:56.168Z,15.68
2023-04-05T08:59:24.974Z,12.75
2023-04-05T09:02:05.079Z,12.55
2023-04-05T09:04:44.508Z,14.57
2023-04-05T09:07:14.077Z,13.32
2023-04-05T09:09:47.854Z,12.05
2023-04-05T09:12:17.256Z,11.32
2023-04-05T09:14:53.798Z,15.40
2023-04-05T09:17:29.246Z,12.05
2023-04-05T09:19:57.813Z,14.85
2023-04-05T09:22:27.484Z,14.07
2023-04-05T09:24:54.781Z,10.60
2023-04-05T09:27:26.873Z,9.90
2023-04-05T09:29:59.119Z,14.20
2023-04-05T09:32:32.236Z,14.38
2023-04-05T09:35:06.303Z,8.63
2023-04-05T09:38:03.297Z,9.13
2023-04-05T09:40:46.683Z,10.23
2023-04-05T09:43:42.100Z,11.55
2023-04-05T09:46:37.924Z,8.73
2023-04-05T09:49:08.025Z,11.35
2023-04-05T09:51:40.934Z,9.05
2023-04-05T09:57:03.651Z,9.10
2023-04-05T09:59:39.109Z,11.35
2023-04-05T10:02:15.655Z,8.10
2023-04-05T10:04:45.449Z,8.73
2023-04-05T10:07:20.067Z,12.93
2023-04-05T10:09:49.164Z,12.13
2023-04-05T10:12:33.499Z,10.75
2023-04-05T10:15:03.158Z,12.48
2023-04-05T10:17:55.728Z,10.88
2023-04-05T10:23:29.109Z,11.85
2023-04-05T10:26:22.043Z,16.05
2023-04-05T10:28:58.666Z,12.10
2023-04-05T10:31:38.138Z,10.32
2023-04-05T10:34:08.397Z,12.73
2023-04-05T10:37:03.041Z,13.98
2023-04-05T10:39:47.850Z,11.27
2023-04-05T10:42:28.173Z,11.68
2023-04-05T10:45:11.667Z,9.85
2023-04-05T10:47:47.508Z,12.00
2023-04-05T10:50:35.978Z,13.77
2023-04-05T10:53:04.490Z,11.18
2023-04-05T10:55:33.638Z,13.38
2023-04-05T10:58:01.722Z,12.75
2023-04-05T11:00:29.372Z,14.88
2023-04-05T11:02:58.115Z,8.32
2023-04-05T11:05:51.636Z,12.23
2023-04-05T11:08:20.836Z,9.95
2023-04-05T11:13:56.453Z,8.57
2023-04-05T11:16:39.828Z,12.45
2023-04-05T11:19:07.736Z,11.70
2023-04-05T11:21:35.466Z,11.00
2023-04-05T11:24:08.714Z,8.98
2023-04-05T11:26:48.251Z,7.03
2023-04-05T11:29:20.046Z,11.55
2023-04-05T11:32:04.629Z,8.05
2023-04-05T11:34:36.432Z,9.55
2023-04-05T11:37:03.594Z,7.95
2023-04-05T11:39:30.690Z,10.05
2023-04-05T11:42:08.736Z,9.65
2023-04-05T11:44:45.155Z,14.00
2023-04-05T11:47:13.207Z,12.65
2023-04-05T11:49:42.759Z,6.93
2023-04-05T11:52:18.585Z,11.38
2023-04-05T11:54:49.486Z,8.75
2023-04-05T11:57:23.003Z,9.38
2023-04-05T11:59:53.755Z,9.90
2023-04-05T12:02:22.613Z,10.10
2023-04-05T12:05:00.029Z,10.45
2023-04-05T12:07:38.174Z,10.32
2023-04-05T12:10:05.561Z,9.93
2023-04-05T12:12:48.879Z,8.32
2023-04-05T12:15:19.690Z,12.48
2023-04-05T12:17:50.110Z,7.95
2023-04-05T12:20:22.841Z,12.02
2023-04-05T12:22:52.370Z,15.30
2023-04-05T12:25:20.652Z,10.88
2023-04-05T12:27:48.119Z,11.35
2023-04-05T12:30:23.698Z,8.23
2023-04-05T12:32:55.449Z,9.65
2023-04-05T12:35:33.258Z,9.18
2023-04-05T12:38:03.112Z,7.43
2023-04-05T12:40:31.088Z,8.10
2023-04-05T12:43:06.537Z,10.90
2023-04-05T12:45:41.321Z,9.30
2023-04-05T12:48:16.437Z,12.20
2023-04-05T12:50:48.319Z,10.32
2023-04-05T12:53:21.341Z,8.48
2023-04-05T12:55:56.470Z,14.68
2023-04-05T12:58:35.415Z,13.00
2023-04-05T13:01:03.249Z,11.05
2023-04-05T13:03:31.896Z,8.02
2023-04-05T13:05:58.971Z,12.18
2023-04-05T13:08:27.822Z,10.27
2023-04-05T13:10:57.291Z,14.70
2023-04-05T13:13:25.411Z,9.32
2023-04-05T13:15:52.607Z,10.65
2023-04-05T13:18:24.033Z,12.25
2023-04-05T13:20:51.927Z,9.30
2023-04-05T13:23:19.248Z,9.82
2023-04-05T13:25:47.943Z,8.80
2023-04-05T13:28:20.070Z,9.23
2023-04-05T13:30:49.095Z,10.02
2023-04-05T13:36:12.967Z,9.45
2023-04-05T13:38:41.262Z,10.52
2023-04-05T13:41:08.489Z,9.27
2023-04-05T13:43:35.683Z,9.13
2023-04-05T13:46:02.693Z,8.48
2023-04-05T13:48:31.493Z,10.27
2023-04-05T13:50:59.556Z,10.63
2023-04-05T13:53:28.494Z,10.55
2023-04-05T13:55:55.941Z,13.90
2023-04-05T13:58:22.885Z,7.60
2023-04-05T14:00:52.525Z,10.32
2023-04-05T14:03:20.041Z,9.23
2023-04-05T14:05:51.716Z,7.57
2023-04-05T14:08:19.701Z,9.15
2023-04-05T14:10:46.704Z,10.02
2023-04-05T14:13:18.002Z,8.60
2023-04-05T14:15:46.310Z,8.60
2023-04-05T14:18:13.308Z,7.95
2023-04-05T14:20:40.739Z,7.35
2023-04-05T14:23:08.012Z,8.80
2023-04-05T14:25:35.030Z,9.90
2023-04-05T14:28:02.009Z,13.02
2023-04-05T14:30:28.916Z,10.13
2023-04-05T14:32:56.299Z,11.07
2023-04-05T14:35:23.368Z,9.98
2023-04-05T14:37:54.473Z,10.25
2023-04-05T14:40:22.483Z,9.55
2023-04-05T14:42:51.045Z,11.40
2023-04-05T14:45:19.084Z,7.10
2023-04-05T14:47:49.193Z,9.57
2023-04-05T14:50:16.268Z,11.80
2023-04-05T14:52:43.245Z,11.52
2023-04-05T14:55:10.186Z,11.10
2023-04-05T14:57:37.071Z,10.80
2023-04-05T15:00:04.843Z,9.68
2023-04-05T15:02:32.057Z,10.25
2023-04-05T15:05:02.728Z,9.43
2023-04-05T15:07:29.728Z,9.45
2023-04-05T15:09:56.710Z,14.38
2023-04-05T15:12:24.846Z,8.63
2023-04-05T15:14:54.841Z,9.40
2023-04-05T15:17:22.275Z,11.95
2023-04-05T15:19:49.955Z,8.43
2023-04-05T15:22:20.565Z,12.05
2023-04-05T15:24:50.065Z,11.27
2023-04-05T15:27:17.104Z,13.43
2023-04-05T15:29:43.986Z,12.32
2023-04-05T15:32:11.164Z,10.50
2023-04-05T15:34:39.016Z,12.38
2023-04-05T15:37:07.470Z,10.77
2023-04-05T15:39:34.558Z,10.13
2023-04-05T15:42:03.033Z,9.18
2023-04-05T15:44:30.457Z,10.20
2023-04-05T15:46:57.424Z,10.63
2023-04-05T15:49:24.720Z,8.95
2023-04-05T15:51:56.040Z,10.18
2023-04-05T15:54:23.011Z,11.53
2023-04-05T15:56:51.669Z,9.00
2023-04-05T15:59:18.632Z,11.25
2023-04-05T16:01:48.289Z,9.45
2023-04-05T16:04:16.776Z,11.50
2023-04-05T16:06:43.902Z,11.05
2023-04-05T16:09:11.248Z,10.57
2023-04-05T16:11:39.755Z,9.13
2023-04-05T16:14:07.159Z,14.10
2023-04-05T16:16:42.043Z,11.10
2023-04-05T16:19:19.666Z,14.57
2023-04-05T16:21:46.715Z,10.77
2023-04-05T16:24:14.895Z,9.43
2023-04-05T16:26:41.971Z,14.98
2023-04-05T16:29:10.068Z,11.45
2023-04-05T16:31:37.768Z,11.77
2023-04-05T16:34:04.735Z,14.32
2023-04-05T16:51:53.636Z,10.25
2023-04-05T16:54:21.549Z,11.15
2023-04-05T16:56:49.676Z,11.93
2023-04-05T16:59:17.309Z,14.75
2023-04-05T17:01:44.645Z,12.68
2023-04-05T17:04:11.866Z,15.38
2023-04-05T17:06:38.836Z,12.43
2023-04-05T17:09:06.488Z,13.20
2023-04-05T17:11:34.530Z,11.48
2023-04-05T17:14:02.100Z,13.30
2023-04-05T17:16:29.116Z,13.02
2023-04-05T17:18:59.676Z,15.82
2023-04-05T17:21:28.297Z,13.40
2023-04-05T17:23:55.348Z,14.63
2023-04-05T17:26:27.854Z,11.68
2023-04-05T17:28:54.904Z,13.63
2023-04-05T17:31:22.374Z,12.68
2023-04-05T17:33:49.555Z,15.35
2023-04-05T17:36:17.853Z,14.00
2023-04-05T17:38:46.176Z,14.80
2023-04-05T17:41:13.132Z,15.80
2023-04-05T17:43:40.485Z,16.17
2023-04-05T17:46:10.434Z,15.25
2023-04-05T17:48:38.091Z,17.67
2023-04-05T17:51:07.157Z,14.23
2023-04-05T17:53:34.723Z,16.05
2023-04-05T17:56:02.329Z,15.55
2023-04-05T17:58:30.320Z,16.98
2023-04-05T18:00:57.290Z,18.00
2023-04-05T18:03:24.385Z,17.25
2023-04-05T18:05:55.135Z,17.77
2023-04-05T18:08:23.776Z,18.70
2023-04-05T18:10:57.592Z,16.83
2023-04-05T18:13:25.497Z,23.42
2023-04-05T18:15:54.445Z,18.85
2023-04-05T18:24:26.808Z,23.30
2023-04-05T18:26:53.939Z,18.58
2023-04-05T18:29:28.203Z,18.63
2023-04-05T18:31:55.882Z,20.33
2023-04-05T18:34:23.163Z,19.98
2023-04-05T18:36:51.284Z,19.40
2023-04-05T18:39:20.202Z,20.75
2023-04-05T18:41:47.332Z,19.45
2023-04-05T18:44:14.471Z,23.05
2023-04-05T18:46:41.935Z,18.15
2023-04-05T18:49:09.149Z,16.40
2023-04-05T18:51:36.316Z,14.63
2023-04-05T18:54:05.237Z,18.77
2023-04-05T18:56:32.269Z,21.15
2023-04-05T18:58:59.378Z,18.73
2023-04-05T19:01:26.585Z,23.50
2023-04-05T19:03:54.766Z,19.17
2023-04-05T19:06:25.315Z,18.85
2023-04-05T19:08:54.251Z,26.08
2023-04-05T19:11:25.370Z,21.25
2023-04-05T19:13:52.694Z,22.95
2023-04-05T19:16:19.947Z,22.70
2023-04-05T19:18:47.609Z,26.45
2023-04-05T19:21:14.659Z,22.92
2023-04-05T19:23:42.125Z,19.35
2023-04-05T19:28:50.090Z,30.17
2023-04-05T19:31:17.593Z,18.48
2023-04-05T19:33:46.402Z,21.75
2023-04-05T19:36:13.589Z,20.80
2023-04-05T19:38:42.092Z,22.20
2023-04-05T19:41:09.452Z,23.70
2023-04-05T19:43:42.072Z,19.52
2023-04-05T19:46:11.176Z,22.83
2023-04-05T19:48:44.130Z,23.67
2023-04-05T19:51:16.918Z,24.70
2023-04-05T19:53:51.434Z,24.65
2023-04-05T19:56:27.485Z,21.58
2023-04-05T19:59:15.744Z,26.35
2023-04-05T20:01:47.659Z,22.70
2023-04-05T20:04:16.569Z,18.77
2023-04-05T20:06:58.231Z,26.02
2023-04-05T20:09:30.871Z,24.70
2023-04-05T20:12:05.168Z,21.88
2023-04-05T20:14:46.090Z,24.77
2023-04-05T20:17:21.263Z,22.65
2023-04-05T20:20:11.134Z,22.63
2023-04-05T20:22:40.724Z,23.02
2023-04-05T20:25:57.577Z,22.10
2023-04-05T20:28:29.676Z,20.63
2023-04-05T20:34:06.491Z,24.52
2023-04-05T20:37:00.199Z,31.77
2023-04-05T20:39:31.761Z,25.27
2023-04-05T20:41:59.669Z,27.38
2023-04-05T20:44:41.605Z,25.08
2023-04-05T20:47:08.944Z,25.52
2023-04-05T20:49:36.367Z,22.98
2023-04-05T20:52:07.864Z,25.52
2023-04-05T20:54:43.426Z,24.60
2023-04-05T20:57:12.561Z,29.20
2023-04-05T20:59:43.259Z,28.80
2023-04-05T21:02:18.428Z,26.40
2023-04-05T21:04:49.907Z,23.95
2023-04-05T21:07:19.842Z,23.03
2023-04-05T21:09:47.415Z,21.85
2023-04-05T21:12:23.160Z,30.20
2023-04-05T21:14:52.129Z,27.55
2023-04-05T21:17:19.934Z,31.58
2023-04-05T21:19:47.636Z,28.15
2023-04-05T21:22:19.809Z,27.35
2023-04-05T21:24:47.649Z,27.45
2023-04-05T21:27:18.714Z,25.80
2023-04-05T21:29:47.410Z,29.42
2023-04-05T21:32:15.360Z,27.35
2023-04-05T21:34:42.804Z,27.33
2023-04-05T21:37:12.868Z,26.08
2023-04-05T21:39:48.089Z,28.33
2023-04-05T21:42:20.772Z,24.25
2023-04-05T21:44:48.067Z,25.60
2023-04-05T21:47:19.079Z,26.58
2023-04-05T21:49:49.107Z,23.33
2023-04-05T21:52:24.121Z,25.58
2023-04-05T21:54:54.416Z,23.85
2023-04-05T21:57:22.301Z,23.35
2023-04-05T21:59:49.700Z,25.15
2023-04-05T22:02:26.547Z,25.77
2023-04-05T22:04:57.194Z,24.00
2023-04-05T22:07:36.038Z,25.03
2023-04-05T22:10:04.032Z,27.90
2023-04-05T22:12:31.206Z,25.48
2023-04-05T22:15:01.751Z,22.42
2023-04-05T22:17:31.724Z,28.30
2023-04-05T22:20:01.438Z,27.00
2023-04-05T22:22:28.548Z,30.45
2023-04-05T22:24:56.059Z,29.55
2023-04-05T22:27:23.449Z,26.80
2023-04-05T22:29:54.919Z,27.98
2023-04-05T22:32:26.752Z,26.07
2023-04-05T22:34:54.936Z,28.10
2023-04-05T22:37:22.873Z,27.20
2023-04-05T22:39:50.245Z,28.50
2023-04-05T22:42:17.512Z,27.95
2023-04-05T22:44:46.379Z,26.10
2023-04-05T22:47:16.000Z,25.92
2023-04-05T22:49:43.838Z,24.27
2023-04-05T22:52:11.642Z,25.45
2023-04-05T22:54:39.272Z,25.92
2023-04-05T22:57:11.937Z,30.17
2023-04-05T22:59:39.198Z,23.27
2023-04-05T23:02:07.142Z,32.35
2023-04-05T23:04:35.066Z,27.33
2023-04-05T23:07:02.798Z,27.05
2023-04-05T23:09:29.993Z,28.60
2023-04-05T23:11:59.778Z,32.10
2023-04-05T23:14:31.163Z,26.00
2023-04-05T23:19:52.007Z,30.35
2023-04-05T23:22:19.445Z,24.92
2023-04-05T23:24:46.789Z,25.15
2023-04-05T23:27:16.830Z,26.70
2023-04-05T23:29:43.897Z,33.22
2023-04-05T23:32:13.131Z,28.80
2023-04-05T23:34:41.592Z,25.50
2023-04-05T23:37:09.473Z,26.23
2023-04-05T23:39:37.470Z,25.95
2023-04-05T23:42:04.897Z,25.35
2023-04-05T23:44:37.868Z,27.50
2023-04-05T23:47:06.680Z,29.40
2023-04-05T23:49:36.456Z,25.20
2023-04-05T23:52:05.047Z,26.25
2023-04-05T23:54:32.504Z,29.25
2023-04-05T23:57:04.170Z,26.60
2023-04-05T23:59:34.352Z,26.75
